Time;durP1;ratioP1;P1;durP2;ratioP2;P2;SDS_P1;SDS_P2;PMS_P1;PMS_P2;Temp;Humidity;BMP_temperature;BMP_pressure;BME280_temperature;BME280_humidity;BME280_pressure;Samples;Min_cycle;Max_cycle;Signal;HPM_P1;HPM_P2
2022/03/26 00:00:22;;;;;;;69.00;27.05;;;;;;;5.83;nan;101547.91;4986558;28;20113;-66
2022/03/26 00:02:48;;;;;;;63.40;25.70;;;;;;;5.75;nan;101546.94;5006253;28;20105;-65
2022/03/26 00:05:15;;;;;;;64.82;24.30;;;;;;;5.65;nan;101537.63;5002862;28;20034;-65
2022/03/26 00:07:40;;;;;;;55.85;24.40;;;;;;;5.67;nan;101541.69;4991358;28;20523;-65
2022/03/26 00:10:06;;;;;;;57.67;24.15;;;;;;;5.55;nan;101529.94;4994156;28;20046;-65
2022/03/26 00:12:32;;;;;;;59.28;24.27;;;;;;;5.27;nan;101498.94;5004956;28;20034;-67
2022/03/26 00:15:00;;;;;;;58.95;24.35;;;;;;;5.56;nan;101552.50;5000067;28;20039;-67
2022/03/26 00:17:26;;;;;;;58.58;22.42;;;;;;;5.52;nan;101546.78;4991751;28;20030;-67
2022/03/26 00:19:52;;;;;;;54.50;23.05;;;;;;;5.52;nan;101552.00;4996399;28;20362;-65
2022/03/26 00:22:17;;;;;;;54.47;22.42;;;;;;;5.33;nan;101542.69;4986720;28;20038;-65
2022/03/26 00:24:43;;;;;;;55.25;23.38;;;;;;;4.89;nan;101563.81;5008916;28;20400;-65
2022/03/26 00:27:09;;;;;;;55.53;22.08;;;;;;;4.57;nan;101564.50;4999515;28;20041;-65
2022/03/26 00:29:35;;;;;;;56.78;22.35;;;;;;;4.46;nan;101573.44;5003716;28;20034;-65
2022/03/26 00:32:02;;;;;;;53.13;21.42;;;;;;;4.54;nan;101572.66;5010049;28;20136;-65
2022/03/26 00:34:27;;;;;;;54.80;22.15;;;;;;;4.60;nan;101571.22;5002883;28;20113;-65
2022/03/26 00:36:53;;;;;;;49.30;20.85;;;;;;;4.66;nan;101575.78;5009842;28;20456;-66
2022/03/26 00:39:18;;;;;;;50.58;20.08;;;;;;;4.58;nan;101560.94;4986647;28;20054;-65
2022/03/26 00:41:43;;;;;;;42.67;18.45;;;;;;;4.53;nan;101570.22;5005266;28;20045;-65
2022/03/26 00:44:09;;;;;;;38.63;18.73;;;;;;;4.63;nan;101571.72;5008665;28;20049;-65
2022/03/26 00:46:34;;;;;;;41.28;18.83;;;;;;;4.63;nan;101569.09;4990772;28;20116;-65
2022/03/26 00:49:00;;;;;;;41.55;19.20;;;;;;;4.71;nan;101581.34;5005627;28;20030;-67
2022/03/26 00:51:26;;;;;;;43.35;17.77;;;;;;;4.57;nan;101567.09;5005810;28;20026;-67
2022/03/26 00:53:51;;;;;;;38.45;18.45;;;;;;;4.69;nan;101581.53;5007700;28;21703;-65
2022/03/26 00:56:17;;;;;;;42.50;18.10;;;;;;;4.53;nan;101562.38;5006425;28;20125;-65
2022/03/26 00:58:43;;;;;;;41.90;18.58;;;;;;;4.66;nan;101592.25;4997191;28;20037;-66
2022/03/26 01:01:08;;;;;;;41.00;18.63;;;;;;;4.39;nan;101589.84;5004647;28;20593;-65
2022/03/26 01:03:34;;;;;;;46.20;18.88;;;;;;;4.38;nan;101593.44;5027526;28;20041;-65
2022/03/26 01:06:00;;;;;;;42.42;19.48;;;;;;;4.24;nan;101576.59;4992924;28;20049;-66
2022/03/26 01:08:25;;;;;;;43.30;18.95;;;;;;;4.27;nan;101589.31;5029302;28;20040;-67
2022/03/26 01:10:51;;;;;;;43.03;18.17;;;;;;;4.21;nan;101592.50;5025579;28;20025;-64
2022/03/26 01:13:17;;;;;;;39.15;18.15;;;;;;;4.21;nan;101601.16;5011270;28;20380;-65
2022/03/26 01:15:42;;;;;;;43.55;18.27;;;;;;;4.11;nan;101586.59;5031012;28;20457;-65
2022/03/26 01:18:09;;;;;;;37.70;18.30;;;;;;;4.11;nan;101591.81;5037765;28;20492;-66
2022/03/26 01:20:35;;;;;;;35.47;16.65;;;;;;;4.03;nan;101600.38;5028798;28;20041;-65
2022/03/26 01:23:01;;;;;;;33.42;16.55;;;;;;;3.86;nan;101585.63;5018505;28;20105;-66
2022/03/26 01:25:27;;;;;;;36.45;16.50;;;;;;;3.74;nan;101582.41;5037914;28;20472;-66
2022/03/26 01:27:52;;;;;;;37.47;16.13;;;;;;;3.79;nan;101595.81;5020934;28;20096;-67
2022/03/26 01:30:18;;;;;;;37.60;17.00;;;;;;;3.66;nan;101588.34;5036635;28;20033;-66
2022/03/26 01:32:44;;;;;;;38.53;16.88;;;;;;;3.51;nan;101579.44;5027322;28;20112;-65
2022/03/26 01:35:11;;;;;;;40.22;18.00;;;;;;;3.58;nan;101596.94;5011701;28;20041;-66
2022/03/26 01:37:36;;;;;;;36.53;17.50;;;;;;;3.57;nan;101605.72;5025971;28;20052;-66
2022/03/26 01:40:03;;;;;;;34.90;16.92;;;;;;;3.48;nan;101595.38;5028924;28;20547;-66
2022/03/26 01:42:29;;;;;;;40.47;17.75;;;;;;;3.49;nan;101600.41;5023778;28;20798;-64
2022/03/26 01:44:54;;;;;;;40.03;17.80;;;;;;;3.45;nan;101600.88;5028896;28;20041;-65
2022/03/26 01:47:20;;;;;;;39.42;17.73;;;;;;;3.40;nan;101591.72;5025661;28;20053;-64
2022/03/26 01:49:45;;;;;;;39.38;17.70;;;;;;;3.44;nan;101597.44;5027521;28;20476;-65
2022/03/26 01:52:11;;;;;;;42.20;18.10;;;;;;;3.32;nan;101589.03;5015581;28;20034;-66
2022/03/26 01:54:39;;;;;;;42.90;18.40;;;;;;;2.96;nan;101530.94;5003068;28;20021;-66
2022/03/26 01:57:05;;;;;;;45.67;19.40;;;;;;;3.36;nan;101597.38;5030898;28;20037;-66
2022/03/26 01:59:33;;;;;;;46.83;20.67;;;;;;;3.25;nan;101594.97;5014275;28;20044;-64
2022/03/26 02:01:58;;;;;;;44.45;19.92;;;;;;;3.26;nan;101602.66;5012635;28;20041;-65
2022/03/26 02:04:24;;;;;;;40.78;17.90;;;;;;;3.26;nan;101612.25;5014974;28;20041;-66
2022/03/26 02:06:50;;;;;;;41.47;18.95;;;;;;;3.19;nan;101607.63;5014193;28;20064;-65
2022/03/26 02:09:16;;;;;;;43.13;19.75;;;;;;;3.13;nan;101604.78;5031653;28;20537;-65
2022/03/26 02:11:45;;;;;;;43.45;19.38;;;;;;;3.17;nan;101616.53;5031448;28;20387;-66
2022/03/26 02:14:12;;;;;;;41.60;20.08;;;;;;;3.12;nan;101616.16;5027701;28;20048;-67
2022/03/26 02:16:40;;;;;;;38.90;20.63;;;;;;;3.10;nan;101624.09;5032334;28;20032;-64
2022/03/26 02:19:07;;;;;;;36.13;19.35;;;;;;;3.06;nan;101614.13;5028367;28;20044;-66
2022/03/26 02:21:34;;;;;;;41.47;19.60;;;;;;;2.99;nan;101611.28;5007025;28;20033;-64
2022/03/26 02:24:02;;;;;;;48.22;19.65;;;;;;;2.92;nan;101595.47;5030631;28;20119;-65
2022/03/26 02:26:28;;;;;;;46.33;19.75;;;;;;;2.88;nan;101599.31;5032567;28;20034;-66
2022/03/26 02:28:54;;;;;;;44.30;19.58;;;;;;;2.95;nan;101613.38;5023509;28;20048;-65
2022/03/26 02:31:20;;;;;;;48.05;21.13;;;;;;;2.91;nan;101608.59;5032351;28;20041;-65
2022/03/26 02:33:46;;;;;;;49.47;20.98;;;;;;;2.88;nan;101607.09;5021416;28;20071;-66
2022/03/26 02:36:12;;;;;;;45.65;20.23;;;;;;;2.90;nan;101610.38;5032290;28;20395;-66
2022/03/26 02:38:38;;;;;;;43.88;20.98;;;;;;;2.92;nan;101608.47;5031501;28;20036;-66
2022/03/26 02:41:04;;;;;;;46.30;20.38;;;;;;;2.80;nan;101595.78;5031664;28;20041;-65
2022/03/26 02:43:30;;;;;;;47.85;23.58;;;;;;;3.10;nan;101613.69;5029279;28;20034;-64
2022/03/26 02:45:55;;;;;;;52.72;24.33;;;;;;;3.23;nan;101617.72;5032372;28;20361;-65
2022/03/26 02:48:21;;;;;;;51.65;21.85;;;;;;;3.13;nan;101618.59;5024450;28;20038;-65
2022/03/26 02:50:47;;;;;;;51.65;21.80;;;;;;;2.99;nan;101611.28;5024141;28;20044;-66
2022/03/26 02:53:13;;;;;;;44.95;21.77;;;;;;;2.94;nan;101616.09;5013082;28;20041;-66
2022/03/26 02:55:39;;;;;;;47.25;22.42;;;;;;;2.78;nan;101601.13;4998691;28;20374;-65
2022/03/26 02:58:07;;;;;;;42.70;22.60;;;;;;;2.83;nan;101622.34;5028165;28;20038;-66
2022/03/26 03:00:33;;;;;;;45.60;21.30;;;;;;;2.75;nan;101624.81;5019430;28;20103;-65
2022/03/26 03:02:58;;;;;;;47.38;22.83;;;;;;;2.62;nan;101608.72;5030651;28;20045;-65
2022/03/26 03:05:24;;;;;;;47.33;22.95;;;;;;;2.63;nan;101610.34;5031567;28;20117;-66
2022/03/26 03:07:50;;;;;;;44.35;22.80;;;;;;;2.59;nan;101614.22;5031527;28;20398;-66
2022/03/26 03:10:17;;;;;;;48.08;22.85;;;;;;;2.53;nan;101616.41;5030163;28;20099;-66
2022/03/26 03:12:46;;;;;;;46.60;22.10;;;;;;;2.54;nan;101623.25;5004503;28;20425;-66
2022/03/26 03:15:12;;;;;;;45.33;22.80;;;;;;;2.50;nan;101619.28;5014357;28;20042;-67
2022/03/26 03:17:39;;;;;;;49.00;23.25;;;;;;;2.39;nan;101601.25;5021065;28;20042;-66
2022/03/26 03:20:06;;;;;;;52.28;24.80;;;;;;;2.37;nan;101611.00;5014406;28;20081;-64
2022/03/26 03:22:32;;;;;;;51.70;24.25;;;;;;;2.23;nan;101608.84;5026848;28;20071;-67
2022/03/26 03:24:58;;;;;;;49.42;25.00;;;;;;;2.29;nan;101618.66;5010141;28;20073;-66
2022/03/26 03:27:23;;;;;;;48.70;23.73;;;;;;;2.29;nan;101623.88;5026985;28;20045;-65
2022/03/26 03:29:49;;;;;;;50.42;23.10;;;;;;;2.24;nan;101618.28;5016137;28;20048;-65
2022/03/26 03:32:15;;;;;;;49.03;23.73;;;;;;;2.20;nan;101633.31;5029522;28;20373;-66
2022/03/26 03:34:40;;;;;;;47.95;23.40;;;;;;;2.12;nan;101618.44;5026217;28;20065;-65
2022/03/26 03:37:06;;;;;;;49.75;23.77;;;;;;;2.09;nan;101626.50;5030951;28;20043;-65
2022/03/26 03:39:32;;;;;;;51.50;23.58;;;;;;;2.01;nan;101613.41;5023944;28;20046;-65
2022/03/26 03:41:58;;;;;;;46.28;23.13;;;;;;;1.98;nan;101623.22;4998687;28;20055;-66
2022/03/26 03:44:25;;;;;;;55.58;23.88;;;;;;;1.97;nan;101630.22;5030193;28;20030;-65
2022/03/26 03:46:50;;;;;;;53.05;24.52;;;;;;;1.91;nan;101628.16;5015910;28;20038;-64
2022/03/26 03:49:16;;;;;;;54.65;25.02;;;;;;;1.80;nan;101610.13;5028478;28;20377;-65
2022/03/26 03:51:41;;;;;;;53.25;24.55;;;;;;;1.70;nan;101602.34;5028957;28;20128;-66
2022/03/26 03:54:07;;;;;;;57.05;26.38;;;;;;;1.78;nan;101625.03;5013142;28;20113;-65
2022/03/26 03:56:32;;;;;;;55.10;24.00;;;;;;;1.69;nan;101622.28;5012195;28;20034;-65
2022/03/26 03:58:57;;;;;;;56.78;26.10;;;;;;;1.58;nan;101619.84;5026733;28;20030;-65
2022/03/26 04:01:23;;;;;;;50.20;25.38;;;;;;;1.56;nan;101626.94;5024480;28;20045;-65
2022/03/26 04:03:48;;;;;;;51.58;25.33;;;;;;;1.49;nan;101616.25;5030248;28;20030;-64
2022/03/26 04:06:14;;;;;;;56.25;27.40;;;;;;;1.52;nan;101629.94;5015993;28;20034;-66
2022/03/26 04:08:39;;;;;;;55.47;26.55;;;;;;;1.51;nan;101610.94;5014870;28;20045;-65
2022/03/26 04:11:04;;;;;;;54.65;26.50;;;;;;;1.63;nan;101633.22;5022572;28;20034;-64
2022/03/26 04:13:30;;;;;;;57.58;26.02;;;;;;;1.53;nan;101616.81;5029606;28;20549;-63
2022/03/26 04:15:55;;;;;;;50.30;25.35;;;;;;;1.60;nan;101628.28;5019741;28;20112;-65
2022/03/26 04:18:21;;;;;;;61.88;26.23;;;;;;;1.67;nan;101649.34;5028529;28;20052;-65
2022/03/26 04:20:46;;;;;;;48.85;25.75;;;;;;;1.62;nan;101633.34;5021893;28;20041;-65
2022/03/26 04:23:12;;;;;;;57.33;25.80;;;;;;;1.64;nan;101624.47;5025836;28;20083;-67
2022/03/26 04:25:38;;;;;;;54.42;26.05;;;;;;;1.73;nan;101638.44;5025550;28;20037;-66
2022/03/26 04:28:04;;;;;;;57.42;26.77;;;;;;;1.73;nan;101633.22;5002945;28;20034;-66
2022/03/26 04:30:29;;;;;;;63.25;26.73;;;;;;;1.79;nan;101637.03;5027019;28;20643;-67
2022/03/26 04:32:55;;;;;;;55.10;26.58;;;;;;;1.85;nan;101639.09;5032037;28;20037;-66
2022/03/26 04:35:22;;;;;;;55.70;26.63;;;;;;;1.86;nan;101638.94;5022494;28;20104;-66
2022/03/26 04:37:47;;;;;;;64.32;26.80;;;;;;;1.78;nan;101628.44;5037391;28;20041;-66
2022/03/26 04:40:14;;;;;;;58.55;27.73;;;;;;;1.89;nan;101643.06;5039178;28;20034;-66
2022/03/26 04:42:41;;;;;;;56.10;26.63;;;;;;;1.81;nan;101628.16;5036356;28;20056;-66
2022/03/26 04:45:07;;;;;;;57.30;25.92;;;;;;;1.82;nan;101627.22;5040407;28;20048;-66
2022/03/26 04:47:33;;;;;;;57.05;26.02;;;;;;;1.94;nan;101642.63;5016263;28;20033;-66
2022/03/26 04:49:59;;;;;;;57.00;27.08;;;;;;;1.89;nan;101637.84;5006163;28;20030;-67
2022/03/26 04:52:24;;;;;;;60.22;26.33;;;;;;;1.90;nan;101639.50;5030209;28;20029;-66
2022/03/26 04:54:50;;;;;;;51.70;26.38;;;;;;;1.88;nan;101637.03;5021427;28;20048;-66
2022/03/26 04:57:17;;;;;;;65.22;27.75;;;;;;;1.97;nan;101653.59;5017732;28;20040;-66
2022/03/26 04:59:44;;;;;;;59.58;25.83;;;;;;;2.01;nan;101654.97;5022726;28;20069;-65
2022/03/26 05:02:09;;;;;;;54.75;25.30;;;;;;;1.88;nan;101636.22;5023439;28;20053;-67
2022/03/26 05:04:35;;;;;;;48.42;25.30;;;;;;;1.91;nan;101641.13;5029518;28;20032;-67
2022/03/26 05:07:00;;;;;;;56.90;25.58;;;;;;;1.82;nan;101649.75;5022141;28;20034;-66
2022/03/26 05:09:26;;;;;;;52.30;24.58;;;;;;;1.75;nan;101646.06;5030185;28;20502;-70
2022/03/26 05:11:51;;;;;;;53.63;25.00;;;;;;;1.53;nan;101636.75;5028753;28;20399;-66
2022/03/26 05:14:17;;;;;;;52.78;24.15;;;;;;;1.54;nan;101657.41;5028113;28;20405;-67
2022/03/26 05:16:43;;;;;;;54.92;25.38;;;;;;;1.55;nan;101663.41;5023735;28;20064;-67
2022/03/26 05:19:09;;;;;;;57.33;25.17;;;;;;;1.54;nan;101660.00;5017371;28;20030;-67
2022/03/26 05:21:34;;;;;;;59.78;26.10;;;;;;;1.54;nan;101672.16;5031500;28;20486;-67
2022/03/26 05:23:59;;;;;;;58.83;25.25;;;;;;;1.57;nan;101658.91;5031668;28;20043;-66
2022/03/26 05:26:25;;;;;;;52.90;25.30;;;;;;;1.64;nan;101676.41;5029447;28;20029;-67
2022/03/26 05:28:51;;;;;;;59.25;26.27;;;;;;;1.62;nan;101680.09;5030117;28;20411;-67
2022/03/26 05:31:17;;;;;;;56.13;25.08;;;;;;;1.68;nan;101679.56;5030622;28;20022;-66
2022/03/26 05:33:42;;;;;;;55.50;24.73;;;;;;;1.60;nan;101672.41;5030556;28;20064;-68
2022/03/26 05:36:08;;;;;;;55.72;26.42;;;;;;;1.64;nan;101670.38;5015985;28;20119;-64
2022/03/26 05:38:33;;;;;;;54.60;25.88;;;;;;;1.62;nan;101674.91;5001626;28;20044;-67
2022/03/26 05:40:59;;;;;;;57.00;27.10;;;;;;;1.81;nan;101687.09;5032618;28;20033;-65
2022/03/26 05:43:25;;;;;;;53.53;25.85;;;;;;;1.83;nan;101685.97;5031378;28;20029;-66
2022/03/26 05:45:51;;;;;;;53.78;25.58;;;;;;;1.94;nan;101686.81;5032652;28;20535;-66
2022/03/26 05:48:18;;;;;;;54.28;25.17;;;;;;;1.98;nan;101691.59;5029365;28;20033;-66
2022/03/26 05:50:44;;;;;;;53.97;26.45;;;;;;;2.14;nan;101701.44;5033055;28;20372;-66
2022/03/26 05:53:11;;;;;;;55.40;26.25;;;;;;;2.27;nan;101699.38;5032565;28;20048;-67
2022/03/26 05:55:36;;;;;;;56.63;27.15;;;;;;;2.20;nan;101674.91;5028637;28;20041;-66
2022/03/26 05:58:02;;;;;;;63.40;27.60;;;;;;;2.47;nan;101697.59;5025921;28;20041;-67
2022/03/26 06:00:28;;;;;;;56.45;26.15;;;;;;;2.52;nan;101695.38;5028199;28;20030;-67
2022/03/26 06:02:53;;;;;;;53.35;26.48;;;;;;;2.66;nan;101706.28;5027390;28;20407;-67
2022/03/26 06:05:19;;;;;;;59.85;27.50;;;;;;;2.73;nan;101703.00;5008037;28;20124;-69
2022/03/26 06:07:44;;;;;;;59.00;27.30;;;;;;;2.87;nan;101709.50;5009407;28;20071;-68
2022/03/26 06:10:10;;;;;;;62.60;29.33;;;;;;;3.04;nan;101725.34;5027458;28;20809;-67
2022/03/26 06:12:35;;;;;;;59.83;27.25;;;;;;;3.19;nan;101716.13;4998622;28;20034;-65
2022/03/26 06:15:03;;;;;;;57.60;26.35;;;;;;;3.32;nan;101718.38;5029420;28;20091;-68
2022/03/26 06:17:28;;;;;;;53.58;26.02;;;;;;;3.34;nan;101713.88;5032071;28;20033;-67
2022/03/26 06:19:54;;;;;;;52.45;25.52;;;;;;;3.30;nan;101699.47;5032128;28;20044;-70
2022/03/26 06:22:19;;;;;;;48.22;24.00;;;;;;;3.57;nan;101724.72;5014536;28;20046;-67
2022/03/26 06:24:44;;;;;;;51.25;24.73;;;;;;;3.66;nan;101726.41;5026902;28;20036;-67
2022/03/26 06:27:10;;;;;;;58.15;25.17;;;;;;;3.79;nan;101732.09;5026373;28;20414;-68
2022/03/26 06:29:36;;;;;;;57.58;25.08;;;;;;;3.83;nan;101730.84;5030472;28;20083;-67
2022/03/26 06:32:02;;;;;;;51.17;23.88;;;;;;;3.85;nan;101730.69;5013978;28;20438;-66
2022/03/26 06:34:28;;;;;;;61.25;26.60;;;;;;;3.96;nan;101740.91;5013857;28;20495;-67
2022/03/26 06:36:54;;;;;;;53.38;23.80;;;;;;;4.05;nan;101744.41;5014444;28;20046;-68
2022/03/26 06:39:19;;;;;;;53.10;23.27;;;;;;;4.18;nan;101757.06;5012698;28;20042;-66
2022/03/26 06:41:45;;;;;;;51.20;24.13;;;;;;;4.26;nan;101749.31;5015241;28;20041;-65
2022/03/26 06:44:12;;;;;;;47.83;22.83;;;;;;;4.29;nan;101737.78;5023505;28;20057;-66
2022/03/26 06:46:39;;;;;;;56.33;23.40;;;;;;;4.38;nan;101747.28;5031982;28;20400;-65
2022/03/26 06:49:05;;;;;;;58.00;23.95;;;;;;;4.53;nan;101753.63;5027426;28;20033;-69
2022/03/26 06:51:31;;;;;;;55.25;23.85;;;;;;;4.45;nan;101733.50;5021955;28;20025;-68
2022/03/26 06:53:58;;;;;;;49.35;22.17;;;;;;;4.68;nan;101752.09;5024220;28;20038;-68
2022/03/26 06:56:23;;;;;;;45.97;22.42;;;;;;;4.80;nan;101768.31;5022803;28;20117;-67
2022/03/26 06:58:49;;;;;;;50.60;22.88;;;;;;;4.86;nan;101765.09;5027567;28;20200;-68
2022/03/26 07:01:15;;;;;;;56.10;24.80;;;;;;;4.99;nan;101766.47;5028616;28;20069;-68
2022/03/26 07:03:40;;;;;;;51.75;23.80;;;;;;;5.14;nan;101775.38;5030476;28;20174;-69
2022/03/26 07:06:05;;;;;;;48.88;23.02;;;;;;;5.22;nan;101771.97;5017403;28;20034;-68
2022/03/26 07:08:31;;;;;;;42.78;22.23;;;;;;;5.31;nan;101765.81;5015889;28;20123;-68
2022/03/26 07:10:57;;;;;;;48.60;23.63;;;;;;;5.45;nan;101774.88;5031572;28;20033;-67
2022/03/26 07:13:22;;;;;;;54.65;23.85;;;;;;;5.56;nan;101776.41;5013770;28;20096;-68
2022/03/26 07:15:48;;;;;;;49.72;23.67;;;;;;;5.66;nan;101777.88;5017072;28;20488;-68
2022/03/26 07:18:15;;;;;;;49.53;22.27;;;;;;;5.74;nan;101780.50;5025248;28;20044;-67
2022/03/26 07:20:40;;;;;;;43.60;22.35;;;;;;;5.80;nan;101775.66;5023210;28;20509;-68
2022/03/26 07:23:06;;;;;;;53.38;22.30;;;;;;;6.24;nan;101827.75;5025305;28;20141;-67
2022/03/26 07:25:31;;;;;;;47.10;21.90;;;;;;;5.99;nan;101764.94;5003633;28;20113;-66
2022/03/26 07:27:57;;;;;;;48.55;21.80;;;;;;;6.16;nan;101784.09;5030437;28;20116;-65
2022/03/26 07:30:23;;;;;;;49.38;22.30;;;;;;;6.31;nan;101787.69;5021749;28;20033;-66
2022/03/26 07:32:48;;;;;;;44.67;22.63;;;;;;;6.41;nan;101776.25;5019074;28;20484;-66
2022/03/26 07:35:14;;;;;;;45.13;22.20;;;;;;;6.49;nan;101776.25;5030848;28;20037;-67
2022/03/26 07:37:39;;;;;;;46.50;22.25;;;;;;;6.66;nan;101783.13;5029776;28;20036;-66
2022/03/26 07:40:06;;;;;;;42.20;21.85;;;;;;;6.79;nan;101785.22;5009796;28;20038;-66
2022/03/26 07:42:31;;;;;;;46.83;21.83;;;;;;;6.96;nan;101783.41;5010492;28;20035;-65
2022/03/26 07:44:57;;;;;;;44.80;21.40;;;;;;;7.09;nan;101793.34;5044088;28;20044;-65
2022/03/26 07:47:23;;;;;;;48.55;22.60;;;;;;;7.13;nan;101787.63;5027766;28;20037;-66
2022/03/26 07:49:48;;;;;;;45.58;21.38;;;;;;;7.28;nan;101785.13;5047448;28;20026;-66
2022/03/26 07:52:14;;;;;;;41.88;20.58;;;;;;;7.46;nan;101787.50;5020175;28;20037;-66
2022/03/26 07:54:39;;;;;;;42.67;20.85;;;;;;;7.63;nan;101804.81;5016077;28;20045;-66
2022/03/26 07:57:05;;;;;;;53.42;20.67;;;;;;;7.80;nan;101795.06;5031011;28;20038;-67
2022/03/26 07:59:31;;;;;;;38.05;19.70;;;;;;;7.96;nan;101788.09;5024178;28;20056;-67
2022/03/26 08:01:56;;;;;;;43.33;19.10;;;;;;;8.20;nan;101790.56;5023848;28;20128;-67
2022/03/26 08:04:22;;;;;;;41.63;18.75;;;;;;;8.35;nan;101787.19;5030814;28;20033;-68
2022/03/26 08:06:47;;;;;;;50.15;20.48;;;;;;;8.40;nan;101782.25;5021491;28;20040;-66
2022/03/26 08:09:13;;;;;;;36.92;20.75;;;;;;;8.63;nan;101795.34;5031030;28;20550;-66
2022/03/26 08:11:38;;;;;;;40.88;18.52;;;;;;;8.79;nan;101789.13;5026268;28;20033;-67
2022/03/26 08:14:04;;;;;;;41.70;18.60;;;;;;;8.90;nan;101791.31;5005077;28;20499;-66
2022/03/26 08:16:29;;;;;;;41.25;20.27;;;;;;;9.02;nan;101795.13;5022923;28;20454;-67
2022/03/26 08:18:55;;;;;;;49.60;20.02;;;;;;;9.16;nan;101801.41;5030085;28;20040;-65
2022/03/26 08:21:20;;;;;;;39.58;19.05;;;;;;;9.30;nan;101800.59;5022633;28;20128;-65
2022/03/26 08:23:46;;;;;;;42.85;18.58;;;;;;;9.46;nan;101801.41;5017178;28;20037;-65
2022/03/26 08:26:26;;;;;;;40.33;18.23;;;;;;;9.61;nan;101794.31;5014212;28;20033;-67
2022/03/26 08:28:52;;;;;;;36.20;17.75;;;;;;;;;;5015391;28;20149;-70
2022/03/26 08:31:18;;;;;;;39.70;17.55;;;;;;;;;;5022942;28;20151;-68
2022/03/26 08:33:44;;;;;;;38.80;18.02;;;;;;;;;;5009887;28;20068;-69
2022/03/26 08:36:10;;;;;;;37.90;17.25;;;;;;;;;;5027499;28;20579;-69
2022/03/26 08:38:35;;;;;;;35.55;16.25;;;;;;;;;;5028637;28;20116;-68
2022/03/26 08:41:01;;;;;;;33.38;16.50;;;;;;;;;;5011748;28;20041;-72
2022/03/26 08:43:26;;;;;;;43.42;16.67;;;;;;;;;;5027580;28;20037;-72
2022/03/26 08:45:52;;;;;;;29.23;14.67;;;;;;;;;;5030205;28;20033;-72
2022/03/26 08:48:17;;;;;;;34.33;15.40;;;;;;;;;;5025712;28;20483;-73
2022/03/26 08:50:42;;;;;;;29.65;15.13;;;;;;;;;;5029902;28;20414;-73
2022/03/26 08:53:08;;;;;;;34.53;15.20;;;;;;;;;;5025171;28;20503;-72
2022/03/26 08:55:34;;;;;;;32.03;15.32;;;;;;;;;;4994520;28;20065;-72
2022/03/26 08:57:59;;;;;;;30.52;14.88;;;;;;;;;;5029222;28;20103;-71
2022/03/26 09:00:26;;;;;;;30.13;14.13;;;;;;;;;;5030034;28;20449;-72
2022/03/26 09:02:52;;;;;;;38.55;15.68;;;;;;;11.54;nan;101785.34;5011268;28;20056;-72
2022/03/26 09:05:17;;;;;;;27.05;13.63;;;;;;;;;;5012118;28;20377;-72
2022/03/26 09:07:42;;;;;;;36.60;15.17;;;;;;;;;;4995623;28;20045;-72
2022/03/26 09:10:08;;;;;;;28.70;14.50;;;;;;;;;;5018756;28;20400;-70
2022/03/26 09:12:33;;;;;;;27.85;14.30;;;;;;;;;;5016512;28;20371;-70
2022/03/26 09:14:59;;;;;;;25.20;14.25;;;;;;;;;;5009233;28;20046;-69
2022/03/26 09:17:24;;;;;;;29.05;14.65;;;;;;;;;;5015031;28;20103;-71
2022/03/26 09:19:49;;;;;;;31.25;14.32;;;;;;;;;;5025316;28;20553;-70
2022/03/26 09:22:15;;;;;;;26.83;13.70;;;;;;;;;;5029080;28;20513;-71
2022/03/26 09:24:40;;;;;;;29.05;13.88;;;;;;;;;;5013347;28;20269;-71
2022/03/26 09:27:07;;;;;;;29.45;13.80;;;;;;;;;;5029631;28;20040;-72
2022/03/26 09:29:32;;;;;;;27.70;13.63;;;;;;;;;;4994365;28;20050;-72
2022/03/26 09:31:58;;;;;;;32.03;14.20;;;;;;;;;;5016315;28;20121;-73
2022/03/26 09:34:23;;;;;;;31.95;14.55;;;;;;;;;;5015552;28;20049;-70
2022/03/26 09:36:49;;;;;;;29.77;13.80;;;;;;;;;;5018406;28;20042;-71
2022/03/26 09:39:14;;;;;;;23.80;12.90;;;;;;;;;;5022701;28;20033;-69
2022/03/26 09:41:40;;;;;;;25.02;12.65;;;;;;;;;;5003339;28;20029;-69
2022/03/26 09:44:06;;;;;;;23.00;12.50;;;;;;;;;;4999494;28;20054;-70
2022/03/26 09:46:34;;;;;;;26.02;13.45;;;;;;;13.63;nan;101691.47;5019879;28;20030;-71
2022/03/26 09:49:00;;;;;;;24.73;12.65;;;;;;;;;;5028768;28;20069;-68
2022/03/26 09:51:25;;;;;;;29.27;12.95;;;;;;;;;;5021648;28;20065;-69
2022/03/26 09:53:51;;;;;;;22.33;11.85;;;;;;;;;;5024104;28;20048;-68
2022/03/26 09:56:18;;;;;;;22.88;12.55;;;;;;;14.04;nan;101692.81;5016091;28;20512;-68
2022/03/26 09:58:43;;;;;;;22.17;11.68;;;;;;;;;;5011846;28;20400;-69
2022/03/26 10:01:09;;;;;;;23.25;12.18;;;;;;;;;;5029491;28;20041;-68
2022/03/26 10:03:38;;;;;;;25.38;12.57;;;;;;;;;;5026073;28;20061;-67
2022/03/26 10:06:04;;;;;;;23.50;12.68;;;;;;;;;;5026052;28;20044;-67
2022/03/26 10:08:33;;;;;;;24.33;11.85;;;;;;;;;;5022539;28;20041;-67
2022/03/26 10:10:58;;;;;;;21.83;11.73;;;;;;;;;;5013512;28;20034;-66
2022/03/26 10:13:34;;;;;;;23.35;11.90;;;;;;;;;;5016996;28;20034;-67
2022/03/26 10:16:00;;;;;;;24.92;10.85;;;;;;;;;;5020780;28;20061;-66
2022/03/26 10:18:25;;;;;;;26.30;11.75;;;;;;;;;;5018117;28;20038;-68
2022/03/26 10:20:58;;;;;;;20.43;10.63;;;;;;;;;;5010981;28;20041;-68
2022/03/26 10:23:28;;;;;;;20.92;11.25;;;;;;;;;;5030307;28;20263;-68
2022/03/26 10:26:07;;;;;;;25.10;11.50;;;;;;;;;;5006751;28;20069;-68
2022/03/26 10:28:32;;;;;;;20.15;10.48;;;;;;;;;;5006760;28;20033;-68
2022/03/26 10:34:00;;;;;;;19.73;9.98;;;;;;;;;;5030726;28;20044;-68
2022/03/26 10:36:26;;;;;;;20.95;10.25;;;;;;;;;;5028677;28;20499;-69
2022/03/26 10:38:51;;;;;;;19.80;9.57;;;;;;;;;;5031087;28;20056;-68
2022/03/26 10:41:20;;;;;;;18.47;9.93;;;;;;;;;;5028042;28;20048;-68
2022/03/26 10:43:45;;;;;;;17.58;9.57;;;;;;;;;;5030591;28;20072;-69
2022/03/26 10:46:10;;;;;;;21.30;9.68;;;;;;;;;;5010775;28;20037;-69
2022/03/26 10:48:37;;;;;;;18.40;9.03;;;;;;;;;;5012352;28;20041;-70
2022/03/26 10:51:15;;;;;;;22.48;10.13;;;;;;;;;;5030923;28;20278;-69
2022/03/26 10:53:42;;;;;;;22.45;9.98;;;;;;;;;;5030543;28;20029;-68
2022/03/26 10:56:11;;;;;;;22.27;9.90;;;;;;;;;;5032079;28;20041;-68
2022/03/26 10:58:37;;;;;;;13.23;8.43;;;;;;;16.38;nan;101620.56;5016975;28;20050;-69
2022/03/26 11:01:04;;;;;;;20.77;9.40;;;;;;;16.47;nan;101631.66;5029179;28;20128;-68
2022/03/26 11:03:29;;;;;;;20.45;9.55;;;;;;;;;;5030630;28;20077;-69
2022/03/26 11:05:56;;;;;;;18.25;9.13;;;;;;;;;;5024911;28;20833;-68
2022/03/26 11:08:29;;;;;;;14.77;8.77;;;;;;;16.68;nan;101640.84;5015235;28;20099;-68
2022/03/26 11:10:55;;;;;;;15.40;8.73;;;;;;;16.76;nan;101635.16;5029189;28;20125;-68
2022/03/26 11:13:23;;;;;;;16.40;7.93;;;;;;;;;;5022285;28;20059;-69
2022/03/26 11:15:51;;;;;;;19.40;8.10;;;;;;;;;;5028933;28;20094;-69
2022/03/26 11:18:31;;;;;;;18.05;8.57;;;;;;;;;;5031061;28;20029;-68
2022/03/26 11:21:15;;;;;;;20.25;8.90;;;;;;;;;;5027618;28;20041;-68
2022/03/26 11:23:59;;;;;;;17.55;7.47;;;;;;;;;;5024829;28;20100;-70
2022/03/26 11:26:43;;;;;;;17.08;8.18;;;;;;;;;;5030329;28;20061;-70
2022/03/26 11:29:26;;;;;;;12.18;7.60;;;;;;;;;;5020171;28;20048;-69
2022/03/26 11:31:57;;;;;;;12.88;7.47;;;;;;;;;;5026039;28;20038;-70
2022/03/26 11:34:23;;;;;;;16.52;8.80;;;;;;;;;;5045974;28;20041;-70
2022/03/26 11:36:52;;;;;;;16.70;8.30;;;;;;;;;;5006596;28;20056;-69
2022/03/26 11:39:19;;;;;;;13.07;7.45;;;;;;;;;;5025703;28;20114;-71
2022/03/26 11:41:45;;;;;;;15.10;7.72;;;;;;;;;;5024961;28;20387;-68
2022/03/26 11:44:12;;;;;;;16.25;7.85;;;;;;;17.65;nan;101597.38;5027602;28;20042;-71
2022/03/26 11:52:19;;;;;;;16.25;8.07;;;;;;;17.96;nan;101584.53;5030997;28;20041;-69
2022/03/26 11:54:45;;;;;;;14.23;7.45;;;;;;;;;;5029520;28;20045;-68
2022/03/26 11:57:22;;;;;;;15.82;7.47;;;;;;;18.17;nan;101555.47;5030547;28;20040;-68
2022/03/26 11:59:49;;;;;;;14.65;6.90;;;;;;;18.24;nan;101601.41;5022566;28;20030;-69
2022/03/26 12:02:21;;;;;;;18.63;7.20;;;;;;;18.30;nan;101554.31;5029689;28;20569;-69
2022/03/26 12:06:35;;;;;;;18.45;8.15;;;;;;;18.11;nan;101562.59;5030431;28;20033;-69
2022/03/26 12:07:49;;;;;;;22.48;7.88;;;;;;;18.28;nan;101522.56;5027753;28;20049;-69
2022/03/26 12:10:18;;;;;;;13.20;7.38;;;;;;;18.31;nan;101567.38;5025666;28;20025;-69
2022/03/26 12:13:04;;;;;;;16.35;7.88;;;;;;;18.53;nan;101524.69;5031251;28;20477;-69